sensor_id;sensor_type;location;lat;lon;timestamp;pressure;altitude;pressure_sealevel;temperature;humidity
19108;BME280;9686;48.832;9.126;2023-01-30T00:01:25;98840.06;;;2.29;100.00
19108;BME280;9686;48.832;9.126;2023-01-30T00:03:50;98832.34;;;2.29;100.00
19108;BME280;9686;48.832;9.126;2023-01-30T00:06:16;98824.72;;;2.32;100.00
19108;BME280;9686;48.832;9.126;2023-01-30T00:08:42;98815.94;;;2.26;100.00
19108;BME280;9686;48.832;9.126;2023-01-30T00:11:10;98803.69;;;1.96;100.00
19108;BME280;9686;48.832;9.126;2023-01-30T00:13:36;98794.97;;;2.15;100.00
19108;BME280;9686;48.832;9.126;2023-01-30T00:16:02;98774.59;;;1.97;100.00
19108;BME280;9686;48.832;9.126;2023-01-30T00:18:28;98789.63;;;2.09;100.00
19108;BME280;9686;48.832;9.126;2023-01-30T00:20:58;98791.44;;;2.11;100.00
19108;BME280;9686;48.832;9.126;2023-01-30T00:23:27;98796.22;;;2.02;100.00
19108;BME280;9686;48.832;9.126;2023-01-30T00:25:53;98806.94;;;1.91;100.00
19108;BME280;9686;48.832;9.126;2023-01-30T00:28:19;98801.84;;;1.92;100.00
19108;BME280;9686;48.832;9.126;2023-01-30T00:30:47;98793.53;;;1.99;100.00
19108;BME280;9686;48.832;9.126;2023-01-30T00:33:13;98783.28;;;2.01;100.00
19108;BME280;9686;48.832;9.126;2023-01-30T00:35:42;98777.56;;;2.08;100.00
19108;BME280;9686;48.832;9.126;2023-01-30T00:38:08;98782.94;;;2.14;100.00
19108;BME280;9686;48.832;9.126;2023-01-30T00:40:34;98773.91;;;1.79;100.00
19108;BME280;9686;48.832;9.126;2023-01-30T00:42:59;98783.16;;;1.74;100.00
19108;BME280;9686;48.832;9.126;2023-01-30T00:45:43;98787.25;;;1.91;100.00
19108;BME280;9686;48.832;9.126;2023-01-30T00:48:27;98799.72;;;1.82;100.00
19108;BME280;9686;48.832;9.126;2023-01-30T00:50:53;98806.88;;;1.89;100.00
19108;BME280;9686;48.832;9.126;2023-01-30T00:53:18;98809.44;;;1.89;100.00
19108;BME280;9686;48.832;9.126;2023-01-30T00:55:44;98820.94;;;1.99;100.00
19108;BME280;9686;48.832;9.126;2023-01-30T00:58:10;98840.34;;;1.47;100.00
19108;BME280;9686;48.832;9.126;2023-01-30T01:00:35;98855.53;;;1.20;100.00
19108;BME280;9686;48.832;9.126;2023-01-30T01:03:01;98867.50;;;1.41;100.00
19108;BME280;9686;48.832;9.126;2023-01-30T01:05:27;98871.50;;;1.13;100.00
19108;BME280;9686;48.832;9.126;2023-01-30T01:07:53;98871.13;;;1.25;100.00
19108;BME280;9686;48.832;9.126;2023-01-30T01:10:18;98859.16;;;1.26;100.00
19108;BME280;9686;48.832;9.126;2023-01-30T01:12:44;98862.59;;;1.47;100.00
19108;BME280;9686;48.832;9.126;2023-01-30T01:15:11;98862.28;;;1.60;100.00
19108;BME280;9686;48.832;9.126;2023-01-30T01:17:37;98849.91;;;1.72;100.00
19108;BME280;9686;48.832;9.126;2023-01-30T01:20:05;98854.00;;;1.67;100.00
19108;BME280;9686;48.832;9.126;2023-01-30T01:22:30;98867.06;;;1.73;100.00
19108;BME280;9686;48.832;9.126;2023-01-30T01:24:55;98857.31;;;1.65;100.00
19108;BME280;9686;48.832;9.126;2023-01-30T01:27:21;98860.00;;;1.68;100.00
19108;BME280;9686;48.832;9.126;2023-01-30T01:29:46;98870.09;;;1.84;100.00
19108;BME280;9686;48.832;9.126;2023-01-30T01:32:11;98871.50;;;1.77;100.00
19108;BME280;9686;48.832;9.126;2023-01-30T01:34:37;98871.63;;;1.80;100.00
19108;BME280;9686;48.832;9.126;2023-01-30T01:37:02;98857.97;;;1.81;100.00
19108;BME280;9686;48.832;9.126;2023-01-30T01:39:27;98848.03;;;1.68;100.00
19108;BME280;9686;48.832;9.126;2023-01-30T01:42:12;98858.94;;;1.83;100.00
19108;BME280;9686;48.832;9.126;2023-01-30T01:47:44;98863.75;;;1.76;100.00
19108;BME280;9686;48.832;9.126;2023-01-30T01:50:18;98860.88;;;1.68;100.00
19108;BME280;9686;48.832;9.126;2023-01-30T01:52:46;98861.41;;;1.82;100.00
19108;BME280;9686;48.832;9.126;2023-01-30T01:55:14;98843.84;;;1.70;100.00
19108;BME280;9686;48.832;9.126;2023-01-30T01:57:54;98836.34;;;1.76;100.00
19108;BME280;9686;48.832;9.126;2023-01-30T02:00:21;98852.03;;;1.82;100.00
19108;BME280;9686;48.832;9.126;2023-01-30T02:02:59;98862.16;;;1.79;100.00
19108;BME280;9686;48.832;9.126;2023-01-30T02:05:29;98857.44;;;1.68;100.00
19108;BME280;9686;48.832;9.126;2023-01-30T02:08:02;98855.03;;;1.72;100.00
19108;BME280;9686;48.832;9.126;2023-01-30T02:10:50;98857.22;;;1.84;100.00
19108;BME280;9686;48.832;9.126;2023-01-30T02:13:17;98843.56;;;1.85;100.00
19108;BME280;9686;48.832;9.126;2023-01-30T02:15:43;98846.53;;;1.96;100.00
19108;BME280;9686;48.832;9.126;2023-01-30T02:18:08;98831.97;;;1.96;100.00
19108;BME280;9686;48.832;9.126;2023-01-30T02:20:39;98816.16;;;1.85;100.00
19108;BME280;9686;48.832;9.126;2023-01-30T02:26:21;98818.13;;;1.93;100.00
19108;BME280;9686;48.832;9.126;2023-01-30T02:29:34;98804.81;;;1.80;100.00
19108;BME280;9686;48.832;9.126;2023-01-30T02:32:42;98810.59;;;1.75;100.00
19108;BME280;9686;48.832;9.126;2023-01-30T02:45:48;98789.25;;;2.00;100.00
19108;BME280;9686;48.832;9.126;2023-01-30T02:48:20;98802.59;;;1.90;100.00
19108;BME280;9686;48.832;9.126;2023-01-30T02:50:53;98789.69;;;1.88;100.00
19108;BME280;9686;48.832;9.126;2023-01-30T02:53:19;98789.25;;;2.00;100.00
19108;BME280;9686;48.832;9.126;2023-01-30T02:55:44;98773.84;;;2.00;100.00
19108;BME280;9686;48.832;9.126;2023-01-30T02:58:10;98761.25;;;2.07;100.00
19108;BME280;9686;48.832;9.126;2023-01-30T03:08:32;98767.63;;;2.17;100.00
19108;BME280;9686;48.832;9.126;2023-01-30T03:11:01;98748.06;;;2.22;100.00
19108;BME280;9686;48.832;9.126;2023-01-30T03:16:18;98713.06;;;2.02;100.00
19108;BME280;9686;48.832;9.126;2023-01-30T03:18:46;98703.00;;;2.08;100.00
19108;BME280;9686;48.832;9.126;2023-01-30T03:21:12;98687.75;;;2.12;100.00
19108;BME280;9686;48.832;9.126;2023-01-30T03:23:37;98669.19;;;2.21;100.00
19108;BME280;9686;48.832;9.126;2023-01-30T03:26:05;98641.81;;;2.23;100.00
19108;BME280;9686;48.832;9.126;2023-01-30T03:28:33;98629.56;;;2.41;100.00
19108;BME280;9686;48.832;9.126;2023-01-30T03:30:58;98625.16;;;2.64;98.71
19108;BME280;9686;48.832;9.126;2023-01-30T03:33:24;98635.41;;;2.63;96.79
19108;BME280;9686;48.832;9.126;2023-01-30T03:35:49;98638.50;;;2.79;100.00
19108;BME280;9686;48.832;9.126;2023-01-30T03:38:15;98635.56;;;2.67;100.00
19108;BME280;9686;48.832;9.126;2023-01-30T03:40:41;98651.56;;;2.59;100.00
19108;BME280;9686;48.832;9.126;2023-01-30T03:43:06;98663.22;;;2.74;100.00
19108;BME280;9686;48.832;9.126;2023-01-30T03:45:32;98677.47;;;2.63;100.00
19108;BME280;9686;48.832;9.126;2023-01-30T03:47:57;98681.53;;;2.84;99.85
19108;BME280;9686;48.832;9.126;2023-01-30T03:50:22;98667.31;;;2.68;96.58
19108;BME280;9686;48.832;9.126;2023-01-30T03:52:48;98680.81;;;2.88;95.06
19108;BME280;9686;48.832;9.126;2023-01-30T03:55:13;98672.38;;;2.92;93.73
19108;BME280;9686;48.832;9.126;2023-01-30T03:57:38;98674.13;;;2.93;91.44
19108;BME280;9686;48.832;9.126;2023-01-30T04:00:04;98658.94;;;3.30;89.62
19108;BME280;9686;48.832;9.126;2023-01-30T04:02:29;98670.38;;;3.38;89.93
19108;BME280;9686;48.832;9.126;2023-01-30T04:04:55;98670.38;;;3.38;89.35
19108;BME280;9686;48.832;9.126;2023-01-30T04:07:20;98666.97;;;3.39;88.81
19108;BME280;9686;48.832;9.126;2023-01-30T04:09:45;98665.09;;;3.35;90.35
19108;BME280;9686;48.832;9.126;2023-01-30T04:12:11;98671.47;;;3.47;88.53
19108;BME280;9686;48.832;9.126;2023-01-30T04:14:36;98662.81;;;3.45;88.42
19108;BME280;9686;48.832;9.126;2023-01-30T04:17:01;98661.50;;;3.59;87.48
19108;BME280;9686;48.832;9.126;2023-01-30T04:19:26;98657.22;;;3.59;84.77
19108;BME280;9686;48.832;9.126;2023-01-30T04:21:52;98641.75;;;3.59;85.13
19108;BME280;9686;48.832;9.126;2023-01-30T04:24:17;98656.34;;;3.59;83.60
19108;BME280;9686;48.832;9.126;2023-01-30T04:26:42;98654.38;;;3.50;80.77
19108;BME280;9686;48.832;9.126;2023-01-30T04:29:08;98659.91;;;3.64;81.32
19108;BME280;9686;48.832;9.126;2023-01-30T04:31:33;98652.72;;;3.52;82.26
19108;BME280;9686;48.832;9.126;2023-01-30T04:33:58;98646.69;;;3.52;81.05
19108;BME280;9686;48.832;9.126;2023-01-30T04:36:24;98655.56;;;3.61;79.66
19108;BME280;9686;48.832;9.126;2023-01-30T04:38:49;98658.72;;;3.51;81.07
19108;BME280;9686;48.832;9.126;2023-01-30T04:41:14;98652.16;;;3.62;78.80
19108;BME280;9686;48.832;9.126;2023-01-30T04:43:40;98650.13;;;3.82;78.75
19108;BME280;9686;48.832;9.126;2023-01-30T04:46:05;98652.31;;;3.67;79.23
19108;BME280;9686;48.832;9.126;2023-01-30T04:48:30;98648.22;;;3.75;78.52
19108;BME280;9686;48.832;9.126;2023-01-30T04:50:56;98655.88;;;3.72;80.70
19108;BME280;9686;48.832;9.126;2023-01-30T04:53:22;98645.06;;;3.85;80.23
19108;BME280;9686;48.832;9.126;2023-01-30T04:55:48;98643.19;;;3.80;78.47
19108;BME280;9686;48.832;9.126;2023-01-30T04:58:15;98652.22;;;3.95;78.50
19108;BME280;9686;48.832;9.126;2023-01-30T05:00:40;98651.50;;;4.01;77.13
19108;BME280;9686;48.832;9.126;2023-01-30T05:03:06;98640.72;;;4.16;78.29
19108;BME280;9686;48.832;9.126;2023-01-30T05:05:31;98638.19;;;4.17;77.14
19108;BME280;9686;48.832;9.126;2023-01-30T05:07:57;98642.50;;;4.17;77.10
19108;BME280;9686;48.832;9.126;2023-01-30T05:10:22;98635.50;;;4.14;80.26
19108;BME280;9686;48.832;9.126;2023-01-30T05:12:48;98639.19;;;4.22;77.67
19108;BME280;9686;48.832;9.126;2023-01-30T05:15:13;98637.03;;;4.06;80.55
19108;BME280;9686;48.832;9.126;2023-01-30T05:17:39;98625.59;;;3.96;80.42
19108;BME280;9686;48.832;9.126;2023-01-30T05:20:06;98605.25;;;4.07;81.48
19108;BME280;9686;48.832;9.126;2023-01-30T05:22:32;98607.13;;;4.14;81.77
19108;BME280;9686;48.832;9.126;2023-01-30T05:24:58;98609.59;;;4.10;82.62
19108;BME280;9686;48.832;9.126;2023-01-30T05:27:23;98608.03;;;4.16;81.26
19108;BME280;9686;48.832;9.126;2023-01-30T05:29:48;98608.44;;;4.31;81.75
19108;BME280;9686;48.832;9.126;2023-01-30T05:32:15;98602.41;;;4.31;80.50
19108;BME280;9686;48.832;9.126;2023-01-30T05:34:41;98603.63;;;4.45;80.21
19108;BME280;9686;48.832;9.126;2023-01-30T05:37:06;98607.13;;;4.47;78.19
19108;BME280;9686;48.832;9.126;2023-01-30T05:39:32;98600.44;;;4.55;78.00
19108;BME280;9686;48.832;9.126;2023-01-30T05:41:57;98596.63;;;4.41;81.03
19108;BME280;9686;48.832;9.126;2023-01-30T05:44:22;98595.75;;;4.41;82.41
19108;BME280;9686;48.832;9.126;2023-01-30T05:46:48;98593.88;;;4.33;82.16
19108;BME280;9686;48.832;9.126;2023-01-30T05:49:13;98597.34;;;4.36;83.00
19108;BME280;9686;48.832;9.126;2023-01-30T05:51:38;98604.44;;;4.43;79.76
19108;BME280;9686;48.832;9.126;2023-01-30T05:54:04;98597.47;;;4.40;81.76
19108;BME280;9686;48.832;9.126;2023-01-30T05:56:29;98604.38;;;4.41;78.93
19108;BME280;9686;48.832;9.126;2023-01-30T05:58:58;98615.22;;;4.62;78.56
19108;BME280;9686;48.832;9.126;2023-01-30T06:01:24;98615.13;;;4.58;77.76
19108;BME280;9686;48.832;9.126;2023-01-30T06:03:50;98608.97;;;4.53;78.59
19108;BME280;9686;48.832;9.126;2023-01-30T06:06:15;98605.13;;;4.37;78.60
19108;BME280;9686;48.832;9.126;2023-01-30T06:08:41;98606.75;;;4.32;78.73
19108;BME280;9686;48.832;9.126;2023-01-30T06:11:09;98604.47;;;4.44;79.56
19108;BME280;9686;48.832;9.126;2023-01-30T06:13:35;98589.91;;;4.46;77.42
19108;BME280;9686;48.832;9.126;2023-01-30T06:16:00;98591.47;;;4.41;78.00
19108;BME280;9686;48.832;9.126;2023-01-30T06:18:26;98591.47;;;4.41;78.48
19108;BME280;9686;48.832;9.126;2023-01-30T06:20:52;98586.97;;;4.32;79.27
19108;BME280;9686;48.832;9.126;2023-01-30T06:23:18;98580.69;;;4.21;79.89
19108;BME280;9686;48.832;9.126;2023-01-30T06:25:45;98597.91;;;4.22;79.24
19108;BME280;9686;48.832;9.126;2023-01-30T06:28:11;98594.84;;;4.39;78.26
19108;BME280;9686;48.832;9.126;2023-01-30T06:30:37;98591.31;;;4.35;77.66
19108;BME280;9686;48.832;9.126;2023-01-30T06:33:03;98589.00;;;4.44;78.40
19108;BME280;9686;48.832;9.126;2023-01-30T06:35:28;98571.34;;;4.26;80.59
19108;BME280;9686;48.832;9.126;2023-01-30T06:37:53;98567.50;;;4.45;78.63
19108;BME280;9686;48.832;9.126;2023-01-30T06:40:18;98569.13;;;4.42;77.21
19108;BME280;9686;48.832;9.126;2023-01-30T06:42:48;98566.59;;;4.43;78.59
19108;BME280;9686;48.832;9.126;2023-01-30T06:45:15;98569.53;;;4.22;79.55
19108;BME280;9686;48.832;9.126;2023-01-30T06:47:58;98569.19;;;4.43;79.25
19108;BME280;9686;48.832;9.126;2023-01-30T06:50:26;98559.38;;;4.30;81.61
19108;BME280;9686;48.832;9.126;2023-01-30T06:52:52;98556.38;;;4.48;80.43
19108;BME280;9686;48.832;9.126;2023-01-30T06:55:20;98555.50;;;4.47;80.14
19108;BME280;9686;48.832;9.126;2023-01-30T06:57:45;98565.06;;;4.51;81.08
19108;BME280;9686;48.832;9.126;2023-01-30T07:00:13;98558.13;;;4.49;81.29
19108;BME280;9686;48.832;9.126;2023-01-30T07:02:39;98567.63;;;4.51;82.56
19108;BME280;9686;48.832;9.126;2023-01-30T07:05:06;98570.56;;;4.30;83.37
19108;BME280;9686;48.832;9.126;2023-01-30T07:07:32;98572.88;;;4.54;80.38
19108;BME280;9686;48.832;9.126;2023-01-30T07:09:57;98564.38;;;4.60;81.05
19108;BME280;9686;48.832;9.126;2023-01-30T07:12:24;98582.22;;;4.49;80.94
19108;BME280;9686;48.832;9.126;2023-01-30T07:14:51;98575.44;;;4.54;80.99
19108;BME280;9686;48.832;9.126;2023-01-30T07:17:17;98593.53;;;4.54;81.90
19108;BME280;9686;48.832;9.126;2023-01-30T07:19:43;98596.00;;;4.50;82.32
19108;BME280;9686;48.832;9.126;2023-01-30T07:22:08;98602.78;;;4.45;81.17
19108;BME280;9686;48.832;9.126;2023-01-30T07:24:34;98608.28;;;4.60;81.04
19108;BME280;9686;48.832;9.126;2023-01-30T07:26:59;98609.28;;;4.67;81.70
19108;BME280;9686;48.832;9.126;2023-01-30T07:29:24;98618.50;;;4.55;80.24
19108;BME280;9686;48.832;9.126;2023-01-30T07:31:50;98602.41;;;4.67;83.58
19108;BME280;9686;48.832;9.126;2023-01-30T07:34:16;98604.06;;;4.63;84.33
19108;BME280;9686;48.832;9.126;2023-01-30T07:36:41;98612.66;;;4.64;82.41
19108;BME280;9686;48.832;9.126;2023-01-30T07:39:06;98615.31;;;4.67;83.01
19108;BME280;9686;48.832;9.126;2023-01-30T07:41:33;98624.66;;;4.60;82.78
19108;BME280;9686;48.832;9.126;2023-01-30T07:43:59;98630.22;;;4.77;82.72
19108;BME280;9686;48.832;9.126;2023-01-30T07:46:24;98628.66;;;4.84;81.37
19108;BME280;9686;48.832;9.126;2023-01-30T07:48:49;98637.28;;;4.86;81.66
19108;BME280;9686;48.832;9.126;2023-01-30T07:51:15;98643.91;;;4.73;83.08
19108;BME280;9686;48.832;9.126;2023-01-30T07:53:40;98634.50;;;4.77;82.21
19108;BME280;9686;48.832;9.126;2023-01-30T07:56:09;98635.66;;;4.89;82.18
19108;BME280;9686;48.832;9.126;2023-01-30T07:58:35;98621.88;;;4.89;83.03
19108;BME280;9686;48.832;9.126;2023-01-30T08:01:00;98611.56;;;4.90;82.72
19108;BME280;9686;48.832;9.126;2023-01-30T08:03:26;98615.78;;;4.87;82.20
19108;BME280;9686;48.832;9.126;2023-01-30T08:05:51;98603.19;;;4.99;84.56
19108;BME280;9686;48.832;9.126;2023-01-30T08:08:18;98610.34;;;5.12;84.35
19108;BME280;9686;48.832;9.126;2023-01-30T08:10:43;98620.81;;;5.18;85.08
19108;BME280;9686;48.832;9.126;2023-01-30T08:13:08;98624.84;;;5.06;86.13
19108;BME280;9686;48.832;9.126;2023-01-30T08:15:34;98640.56;;;5.16;85.26
19108;BME280;9686;48.832;9.126;2023-01-30T08:17:59;98639.59;;;5.11;89.55
19108;BME280;9686;48.832;9.126;2023-01-30T08:20:26;98646.19;;;4.97;89.23
19108;BME280;9686;48.832;9.126;2023-01-30T08:22:52;98624.91;;;5.09;91.96
19108;BME280;9686;48.832;9.126;2023-01-30T08:25:19;98614.31;;;4.97;93.75
19108;BME280;9686;48.832;9.126;2023-01-30T08:27:44;98604.63;;;4.88;92.56
19108;BME280;9686;48.832;9.126;2023-01-30T08:30:10;98596.00;;;4.87;94.81
19108;BME280;9686;48.832;9.126;2023-01-30T08:32:36;98588.47;;;4.97;94.86
19108;BME280;9686;48.832;9.126;2023-01-30T08:35:01;98561.22;;;5.11;93.40
19108;BME280;9686;48.832;9.126;2023-01-30T08:37:27;98564.75;;;5.16;92.46
19108;BME280;9686;48.832;9.126;2023-01-30T08:39:52;98561.28;;;5.14;92.49
19108;BME280;9686;48.832;9.126;2023-01-30T08:42:17;98575.44;;;5.31;93.12
19108;BME280;9686;48.832;9.126;2023-01-30T08:44:43;98580.97;;;5.48;92.32
19108;BME280;9686;48.832;9.126;2023-01-30T08:47:08;98569.66;;;5.44;93.80
19108;BME280;9686;48.832;9.126;2023-01-30T08:49:34;98568.44;;;5.71;93.31
19108;BME280;9686;48.832;9.126;2023-01-30T08:51:59;98558.75;;;6.03;90.77
19108;BME280;9686;48.832;9.126;2023-01-30T08:54:24;98560.34;;;5.98;89.73
19108;BME280;9686;48.832;9.126;2023-01-30T08:56:50;98557.06;;;6.05;90.15
19108;BME280;9686;48.832;9.126;2023-01-30T08:59:15;98553.56;;;6.03;88.40
19108;BME280;9686;48.832;9.126;2023-01-30T09:01:40;98540.84;;;6.16;88.78
19108;BME280;9686;48.832;9.126;2023-01-30T09:04:05;98528.88;;;6.23;87.56
19108;BME280;9686;48.832;9.126;2023-01-30T09:06:31;98512.88;;;6.50;85.34
19108;BME280;9686;48.832;9.126;2023-01-30T09:08:58;98497.34;;;6.48;86.00
19108;BME280;9686;48.832;9.126;2023-01-30T09:11:23;98510.09;;;6.35;88.63
19108;BME280;9686;48.832;9.126;2023-01-30T09:13:48;98507.47;;;6.33;87.90
19108;BME280;9686;48.832;9.126;2023-01-30T09:16:14;98498.13;;;6.43;87.08
19108;BME280;9686;48.832;9.126;2023-01-30T09:18:41;98503.72;;;6.14;89.87
19108;BME280;9686;48.832;9.126;2023-01-30T09:21:08;98513.47;;;6.31;87.22
19108;BME280;9686;48.832;9.126;2023-01-30T09:23:34;98516.94;;;6.31;88.90
19108;BME280;9686;48.832;9.126;2023-01-30T09:25:59;98527.22;;;6.25;88.22
19108;BME280;9686;48.832;9.126;2023-01-30T09:28:25;98517.53;;;6.15;89.78
19108;BME280;9686;48.832;9.126;2023-01-30T09:30:50;98516.50;;;6.04;90.12
19108;BME280;9686;48.832;9.126;2023-01-30T09:33:16;98514.97;;;6.18;89.04
19108;BME280;9686;48.832;9.126;2023-01-30T09:35:46;98527.00;;;6.13;89.05
19108;BME280;9686;48.832;9.126;2023-01-30T09:38:12;98523.69;;;6.23;88.08
19108;BME280;9686;48.832;9.126;2023-01-30T09:40:41;98522.19;;;6.36;87.14
19108;BME280;9686;48.832;9.126;2023-01-30T09:46:27;98500.97;;;6.04;91.47
19108;BME280;9686;48.832;9.126;2023-01-30T09:51:41;98495.81;;;6.05;91.23
19108;BME280;9686;48.832;9.126;2023-01-30T09:54:21;98488.81;;;6.00;91.72
19108;BME280;9686;48.832;9.126;2023-01-30T09:57:00;98487.34;;;6.15;90.82
19108;BME280;9686;48.832;9.126;2023-01-30T10:02:32;98476.38;;;6.30;93.06
19108;BME280;9686;48.832;9.126;2023-01-30T10:04:59;98473.19;;;6.49;90.26
19108;BME280;9686;48.832;9.126;2023-01-30T10:07:32;98475.63;;;6.40;91.36
19108;BME280;9686;48.832;9.126;2023-01-30T10:10:23;98470.38;;;6.34;91.48
19108;BME280;9686;48.832;9.126;2023-01-30T10:16:23;98458.59;;;6.55;89.21
19108;BME280;9686;48.832;9.126;2023-01-30T10:21:50;98442.44;;;6.75;88.15
19108;BME280;9686;48.832;9.126;2023-01-30T10:24:34;98447.34;;;6.51;89.42
19108;BME280;9686;48.832;9.126;2023-01-30T10:27:03;98449.34;;;6.73;87.56
19108;BME280;9686;48.832;9.126;2023-01-30T10:29:36;98446.00;;;6.82;86.79
19108;BME280;9686;48.832;9.126;2023-01-30T10:32:10;98455.47;;;6.80;86.32
19108;BME280;9686;48.832;9.126;2023-01-30T10:34:40;98447.72;;;6.82;87.76
19108;BME280;9686;48.832;9.126;2023-01-30T10:37:09;98456.16;;;6.67;90.91
19108;BME280;9686;48.832;9.126;2023-01-30T10:40:31;98451.13;;;6.77;90.68
19108;BME280;9686;48.832;9.126;2023-01-30T10:43:05;98449.69;;;7.02;90.58
19108;BME280;9686;48.832;9.126;2023-01-30T10:48:58;98442.69;;;6.94;96.32
19108;BME280;9686;48.832;9.126;2023-01-30T10:54:11;98435.09;;;7.09;99.18
19108;BME280;9686;48.832;9.126;2023-01-30T10:56:48;98444.56;;;7.05;100.00
19108;BME280;9686;48.832;9.126;2023-01-30T10:59:23;98435.09;;;7.09;100.00
19108;BME280;9686;48.832;9.126;2023-01-30T11:02:01;98435.97;;;7.09;100.00
19108;BME280;9686;48.832;9.126;2023-01-30T11:04:42;98443.03;;;7.26;100.00
19108;BME280;9686;48.832;9.126;2023-01-30T11:07:11;98447.28;;;7.18;100.00
19108;BME280;9686;48.832;9.126;2023-01-30T11:09:43;98443.81;;;7.17;100.00
19108;BME280;9686;48.832;9.126;2023-01-30T11:12:10;98452.53;;;7.24;100.00
19108;BME280;9686;48.832;9.126;2023-01-30T11:17:19;98449.84;;;7.16;100.00
19108;BME280;9686;48.832;9.126;2023-01-30T11:19:53;98454.09;;;7.08;100.00
19108;BME280;9686;48.832;9.126;2023-01-30T11:22:20;98449.78;;;7.08;100.00
19108;BME280;9686;48.832;9.126;2023-01-30T11:24:45;98440.38;;;7.20;100.00
19108;BME280;9686;48.832;9.126;2023-01-30T11:27:23;98436.03;;;7.16;100.00
19108;BME280;9686;48.832;9.126;2023-01-30T11:29:49;98438.84;;;7.34;100.00
19108;BME280;9686;48.832;9.126;2023-01-30T11:32:28;98444.72;;;7.19;100.00
19108;BME280;9686;48.832;9.126;2023-01-30T11:37:32;98464.53;;;7.14;100.00
19108;BME280;9686;48.832;9.126;2023-01-30T11:39:58;98452.44;;;7.16;100.00
19108;BME280;9686;48.832;9.126;2023-01-30T11:42:29;98459.97;;;6.95;100.00
19108;BME280;9686;48.832;9.126;2023-01-30T11:44:58;98460.97;;;7.03;100.00
19108;BME280;9686;48.832;9.126;2023-01-30T11:47:25;98469.28;;;6.77;100.00
19108;BME280;9686;48.832;9.126;2023-01-30T11:49:54;98471.97;;;6.87;100.00
19108;BME280;9686;48.832;9.126;2023-01-30T11:52:35;98474.63;;;6.91;100.00
19108;BME280;9686;48.832;9.126;2023-01-30T11:55:05;98466.88;;;6.94;100.00
19108;BME280;9686;48.832;9.126;2023-01-30T11:57:52;98456.34;;;6.80;100.00
19108;BME280;9686;48.832;9.126;2023-01-30T12:00:25;98457.38;;;6.93;100.00
19108;BME280;9686;48.832;9.126;2023-01-30T12:02:55;98454.06;;;7.05;100.00
19108;BME280;9686;48.832;9.126;2023-01-30T12:05:30;98454.66;;;6.84;100.00
19108;BME280;9686;48.832;9.126;2023-01-30T12:10:48;98452.22;;;6.96;100.00
19108;BME280;9686;48.832;9.126;2023-01-30T12:13:22;98445.34;;;7.01;100.00
19108;BME280;9686;48.832;9.126;2023-01-30T12:15:52;98439.47;;;7.13;100.00
19108;BME280;9686;48.832;9.126;2023-01-30T12:18:27;98450.47;;;6.94;100.00
19108;BME280;9686;48.832;9.126;2023-01-30T12:23:46;98445.34;;;7.01;100.00
19108;BME280;9686;48.832;9.126;2023-01-30T12:26:26;98451.06;;;6.74;100.00
19108;BME280;9686;48.832;9.126;2023-01-30T12:29:33;98438.22;;;6.80;100.00
19108;BME280;9686;48.832;9.126;2023-01-30T12:32:10;98445.25;;;6.92;100.00
19108;BME280;9686;48.832;9.126;2023-01-30T12:34:37;98438.31;;;6.90;100.00
19108;BME280;9686;48.832;9.126;2023-01-30T12:45:18;98453.81;;;6.84;100.00
19108;BME280;9686;48.832;9.126;2023-01-30T12:56:10;98475.47;;;6.92;100.00
19108;BME280;9686;48.832;9.126;2023-01-30T12:59:01;98488.50;;;6.98;100.00
19108;BME280;9686;48.832;9.126;2023-01-30T13:07:56;98473.81;;;6.97;100.00
19108;BME280;9686;48.832;9.126;2023-01-30T13:12:48;98453.94;;;6.96;100.00
19108;BME280;9686;48.832;9.126;2023-01-30T13:20:42;98471.44;;;7.15;100.00
19108;BME280;9686;48.832;9.126;2023-01-30T13:23:17;98460.06;;;7.02;100.00
19108;BME280;9686;48.832;9.126;2023-01-30T13:25:53;98466.94;;;7.00;100.00
19108;BME280;9686;48.832;9.126;2023-01-30T13:28:30;98461.16;;;7.23;100.00
19108;BME280;9686;48.832;9.126;2023-01-30T13:30:57;98459.56;;;7.34;100.00
19108;BME280;9686;48.832;9.126;2023-01-30T13:33:34;98470.59;;;7.16;100.00
19108;BME280;9686;48.832;9.126;2023-01-30T13:36:12;98483.75;;;7.30;100.00
19108;BME280;9686;48.832;9.126;2023-01-30T13:38:44;98481.31;;;7.48;100.00
19108;BME280;9686;48.832;9.126;2023-01-30T13:41:14;98485.59;;;7.43;100.00
19108;BME280;9686;48.832;9.126;2023-01-30T13:43:47;98490.94;;;7.55;100.00
19108;BME280;9686;48.832;9.126;2023-01-30T13:46:18;98499.34;;;7.34;100.00
19108;BME280;9686;48.832;9.126;2023-01-30T13:48:55;98508.88;;;7.37;100.00
19108;BME280;9686;48.832;9.126;2023-01-30T13:51:38;98505.38;;;7.32;100.00
19108;BME280;9686;48.832;9.126;2023-01-30T13:54:36;98509.78;;;7.42;100.00
19108;BME280;9686;48.832;9.126;2023-01-30T13:57:06;98511.59;;;7.49;100.00
19108;BME280;9686;48.832;9.126;2023-01-30T13:59:53;98509.78;;;7.42;100.00
19108;BME280;9686;48.832;9.126;2023-01-30T14:02:24;98516.88;;;7.57;100.00
19108;BME280;9686;48.832;9.126;2023-01-30T14:04:50;98518.63;;;7.58;100.00
19108;BME280;9686;48.832;9.126;2023-01-30T14:10:12;98525.31;;;7.39;100.00
19108;BME280;9686;48.832;9.126;2023-01-30T14:12:49;98521.00;;;7.39;100.00
19108;BME280;9686;48.832;9.126;2023-01-30T14:18:02;98529.75;;;7.51;100.00
19108;BME280;9686;48.832;9.126;2023-01-30T14:20:36;98519.38;;;7.49;100.00
19108;BME280;9686;48.832;9.126;2023-01-30T14:23:19;98515.81;;;7.38;100.00
19108;BME280;9686;48.832;9.126;2023-01-30T14:25:50;98523.66;;;7.46;100.00
19108;BME280;9686;48.832;9.126;2023-01-30T14:31:01;98520.34;;;7.56;100.00
19108;BME280;9686;48.832;9.126;2023-01-30T14:38:31;98533.09;;;7.39;100.00
19108;BME280;9686;48.832;9.126;2023-01-30T14:43:47;98540.72;;;7.27;100.00
19108;BME280;9686;48.832;9.126;2023-01-30T14:51:44;98538.84;;;7.14;100.00
19108;BME280;9686;48.832;9.126;2023-01-30T15:01:57;98561.22;;;7.07;100.00
19108;BME280;9686;48.832;9.126;2023-01-30T15:04:26;98573.44;;;7.17;100.00
19108;BME280;9686;48.832;9.126;2023-01-30T15:06:52;98577.13;;;7.34;100.00
19108;BME280;9686;48.832;9.126;2023-01-30T15:09:19;98579.53;;;7.19;100.00
19108;BME280;9686;48.832;9.126;2023-01-30T15:11:55;98580.66;;;7.39;100.00
19108;BME280;9686;48.832;9.126;2023-01-30T15:15:04;98602.22;;;7.37;100.00
19108;BME280;9686;48.832;9.126;2023-01-30T15:17:53;98602.53;;;7.60;100.00
19108;BME280;9686;48.832;9.126;2023-01-30T15:26:23;98612.09;;;7.64;100.00
19108;BME280;9686;48.832;9.126;2023-01-30T15:31:57;98603.28;;;7.53;100.00
19108;BME280;9686;48.832;9.126;2023-01-30T15:34:26;98605.88;;;7.54;100.00
19108;BME280;9686;48.832;9.126;2023-01-30T15:36:53;98611.81;;;7.44;100.00